Time,TemperatureF,DewpointF,PressureIn,WindDirection,WindDirectionDegrees,WindSpeedMPH,WindSpeedGustMPH,Humidity,HourlyPrecipIn,Conditions,Clouds,dailyrainin,SoftwareType,DateUTC
2013-10-27 00:03:00,-999.0,-99.9,-100.00,NW,313,20.0,26.0,-999,-99.99,,,-99.99,,2013-10-27 04:03:00,
2013-10-27 00:14:00,50.0,-99.9,-100.00,NW,313,20.0,26.0,-999,-99.99,,,-99.99,,2013-10-27 04:14:00,
2013-10-27 00:24:00,49.0,-99.9,-100.00,NW,309,15.0,20.0,-999,-99.99,,,-99.99,,2013-10-27 04:24:00,
2013-10-27 00:34:00,49.0,-99.9,-100.00,NW,309,15.0,20.0,-999,-99.99,,,-99.99,,2013-10-27 04:34:00,
2013-10-27 00:54:00,49.0,-99.9,-100.00,NW,323,17.0,26.0,-999,-99.99,,,-99.99,,2013-10-27 04:54:00,
2013-10-27 01:23:00,49.0,-99.9,-100.00,NW,306,11.0,15.0,-999,-99.99,,,-99.99,,2013-10-27 05:23:00,
2013-10-27 01:43:00,49.0,-99.9,-100.00,NW,308,12.0,19.0,-999,-99.99,,,-99.99,,2013-10-27 05:43:00,
2013-10-27 01:52:00,49.0,-99.9,-100.00,NW,308,12.0,19.0,-999,-99.99,,,-99.99,,2013-10-27 05:52:00,
2013-10-27 02:22:00,49.0,-99.9,-100.00,West,273,8.0,10.0,-999,-99.99,,,-99.99,,2013-10-27 06:22:00,
2013-10-27 02:33:00,49.0,-99.9,-100.00,West,273,8.0,10.0,-999,-99.99,,,-99.99,,2013-10-27 06:33:00,
2013-10-27 02:42:00,49.0,-99.9,-100.00,West,273,8.0,10.0,-999,-99.99,,,-99.99,,2013-10-27 06:42:00,
2013-10-27 02:53:00,49.0,-99.9,-100.00,WNW,294,5.0,14.0,-999,-99.99,,,-99.99,,2013-10-27 06:53:00,
2013-10-27 03:02:00,49.0,-99.9,-100.00,WNW,294,5.0,14.0,-999,-99.99,,,-99.99,,2013-10-27 07:02:00,
2013-10-27 03:22:00,49.0,-99.9,-100.00,WNW,293,9.0,14.0,-999,-99.99,,,-99.99,,2013-10-27 07:22:00,
2013-10-27 03:42:00,49.0,-99.9,-100.00,West,279,12.0,16.0,-999,-99.99,,,-99.99,,2013-10-27 07:42:00,
2013-10-27 03:53:00,49.0,-99.9,-100.00,West,279,12.0,16.0,-999,-99.99,,,-99.99,,2013-10-27 07:53:00,
2013-10-27 04:03:00,49.0,-99.9,-100.00,West,279,12.0,16.0,-999,-99.99,,,-99.99,,2013-10-27 08:03:00,
2013-10-27 04:22:00,49.0,-99.9,-100.00,WNW,292,8.0,12.0,-999,-99.99,,,-99.99,,2013-10-27 08:22:00,
2013-10-27 04:42:00,49.0,-99.9,-100.00,West,280,10.0,15.0,-999,-99.99,,,-99.99,,2013-10-27 08:42:00,
2013-10-27 04:52:00,49.0,-99.9,-100.00,West,280,10.0,15.0,-999,-99.99,,,-99.99,,2013-10-27 08:52:00,
2013-10-27 05:12:00,49.0,-99.9,-100.00,West,280,10.0,15.0,-999,-99.99,,,-99.99,,2013-10-27 09:12:00,
2013-10-27 05:22:00,48.0,-99.9,-100.00,WNW,283,7.0,10.0,-999,-99.99,,,-99.99,,2013-10-27 09:22:00,
2013-10-27 05:33:00,48.0,-99.9,-100.00,WNW,283,7.0,10.0,-999,-99.99,,,-99.99,,2013-10-27 09:33:00,
2013-10-27 05:54:00,48.0,-99.9,-100.00,WNW,283,7.0,12.0,-999,-99.99,,,-99.99,,2013-10-27 09:54:00,
2013-10-27 06:13:00,48.0,-99.9,-100.00,WNW,283,7.0,12.0,-999,-99.99,,,-99.99,,2013-10-27 10:13:00,
2013-10-27 10:52:00,48.0,-99.9,-100.00,SW,236,15.0,20.0,-999,-99.99,,,-99.99,,2013-10-27 14:52:00,
2013-10-27 11:22:00,48.0,-99.9,-100.00,SW,216,17.0,19.0,-999,-99.99,,,-99.99,,2013-10-27 15:22:00,
2013-10-27 11:34:00,48.0,-99.9,-100.00,SW,216,17.0,19.0,-999,-99.99,,,-99.99,,2013-10-27 15:34:00,
2013-10-27 11:45:00,48.0,-99.9,-100.00,SW,216,17.0,19.0,-999,-99.99,,,-99.99,,2013-10-27 15:45:00,
2013-10-27 11:54:00,48.0,-99.9,-100.00,SW,216,17.0,22.0,-999,-99.99,,,-99.99,,2013-10-27 15:54:00,
2013-10-27 12:04:00,48.0,-99.9,-100.00,SW,216,17.0,22.0,-999,-99.99,,,-99.99,,2013-10-27 16:04:00,
2013-10-27 12:24:00,49.0,-99.9,-100.00,SSW,213,17.0,25.0,-999,-99.99,,,-99.99,,2013-10-27 16:24:00,
2013-10-27 12:43:00,49.0,-99.9,-100.00,SSW,213,17.0,25.0,-999,-99.99,,,-99.99,,2013-10-27 16:43:00,
2013-10-27 12:54:00,49.0,-99.9,-100.00,SSW,213,17.0,25.0,-999,-99.99,,,-99.99,,2013-10-27 16:54:00,
2013-10-27 13:22:00,50.0,-99.9,-100.00,SSW,210,17.0,20.0,-999,-99.99,,,-99.99,,2013-10-27 17:22:00,
2013-10-27 13:43:00,50.0,-99.9,-100.00,SSW,210,17.0,23.0,-999,-99.99,,,-99.99,,2013-10-27 17:43:00,
2013-10-27 13:53:00,50.0,-99.9,-100.00,SSW,210,17.0,23.0,-999,-99.99,,,-99.99,,2013-10-27 17:53:00,
2013-10-27 14:02:00,50.0,-99.9,-100.00,SSW,210,17.0,23.0,-999,-99.99,,,-99.99,,2013-10-27 18:02:00,
2013-10-27 14:53:00,50.0,-99.9,-100.00,SSW,208,16.0,21.0,-999,-99.99,,,-99.99,,2013-10-27 18:53:00,
2013-10-27 15:02:00,50.0,-99.9,-100.00,SSW,208,16.0,21.0,-999,-99.99,,,-99.99,,2013-10-27 19:02:00,
2013-10-27 15:22:00,51.0,-99.9,-100.00,SSW,200,14.0,17.0,-999,-99.99,,,-99.99,,2013-10-27 19:22:00,
2013-10-27 15:32:00,51.0,-99.9,-100.00,SSW,200,14.0,17.0,-999,-99.99,,,-99.99,,2013-10-27 19:32:00,
2013-10-27 16:12:00,51.0,-99.9,-100.00,SSW,207,14.0,20.0,-999,-99.99,,,-99.99,,2013-10-27 20:12:00,
2013-10-27 16:22:00,52.0,-99.9,-100.00,SSW,206,16.0,21.0,-999,-99.99,,,-99.99,,2013-10-27 20:22:00,
2013-10-27 16:32:00,52.0,-99.9,-100.00,SSW,206,16.0,21.0,-999,-99.99,,,-99.99,,2013-10-27 20:32:00,
2013-10-27 16:52:00,52.0,-99.9,-100.00,SSW,202,15.0,21.0,-999,-99.99,,,-99.99,,2013-10-27 20:52:00,
2013-10-27 17:02:00,52.0,-99.9,-100.00,SSW,202,15.0,21.0,-999,-99.99,,,-99.99,,2013-10-27 21:02:00,
2013-10-27 17:22:00,52.0,-99.9,-100.00,SSW,209,17.0,20.0,-999,-99.99,,,-99.99,,2013-10-27 21:22:00,
2013-10-27 17:34:00,52.0,-99.9,-100.00,SSW,209,17.0,20.0,-999,-99.99,,,-99.99,,2013-10-27 21:34:00,
2013-10-27 17:54:00,52.0,-99.9,-100.00,SSW,206,16.0,21.0,-999,-99.99,,,-99.99,,2013-10-27 21:54:00,
2013-10-27 18:13:00,52.0,-99.9,-100.00,SSW,206,16.0,21.0,-999,-99.99,,,-99.99,,2013-10-27 22:13:00,
2013-10-27 18:43:00,52.0,-99.9,-100.00,SSW,197,13.0,16.0,-999,-99.99,,,-99.99,,2013-10-27 22:43:00,
2013-10-27 18:54:00,52.0,-99.9,-100.00,SSW,196,13.0,20.0,-999,-99.99,,,-99.99,,2013-10-27 22:54:00,
2013-10-27 19:03:00,52.0,-99.9,-100.00,SSW,196,13.0,20.0,-999,-99.99,,,-99.99,,2013-10-27 23:03:00,
2013-10-27 19:22:00,52.0,-99.9,-100.00,South,188,13.0,18.0,-999,-99.99,,,-99.99,,2013-10-27 23:22:00,
2013-10-27 19:43:00,52.0,-99.9,-100.00,South,189,13.0,19.0,-999,-99.99,,,-99.99,,2013-10-27 23:43:00,
2013-10-27 19:52:00,52.0,-99.9,-100.00,South,189,13.0,19.0,-999,-99.99,,,-99.99,,2013-10-27 23:52:00,
2013-10-27 20:11:00,52.0,-99.9,-100.00,South,189,13.0,19.0,-999,-99.99,,,-99.99,,2013-10-28 00:11:00,
2013-10-27 20:22:00,51.0,-99.9,-100.00,SSE,164,8.0,13.0,-999,-99.99,,,-99.99,,2013-10-28 00:22:00,
2013-10-27 20:43:00,51.0,-99.9,-100.00,SSE,166,7.0,15.0,-999,-99.99,,,-99.99,,2013-10-28 00:43:00,
2013-10-27 20:52:00,51.0,-99.9,-100.00,SSE,166,7.0,15.0,-999,-99.99,,,-99.99,,2013-10-28 00:52:00,
2013-10-27 23:22:00,49.0,-99.9,-100.00,SSE,167,8.0,14.0,-999,-99.99,,,-99.99,,2013-10-28 03:22:00,
2013-10-27 23:34:00,49.0,-99.9,-100.00,SSE,167,8.0,14.0,-999,-99.99,,,-99.99,,2013-10-28 03:34:00,